sensor_id;sensor_type;location;lat;lon;timestamp;P1;durP1;ratioP1;P2;durP2;ratioP2
35917;SDS011;22011;59.912;30.300;2023-04-06T00:01:19;5.80;;;3.80;;
35917;SDS011;22011;59.912;30.300;2023-04-06T00:03:48;3.90;;;2.88;;
35917;SDS011;22011;59.912;30.300;2023-04-06T00:06:16;4.07;;;2.80;;
35917;SDS011;22011;59.912;30.300;2023-04-06T00:08:43;4.28;;;2.92;;
35917;SDS011;22011;59.912;30.300;2023-04-06T00:11:11;4.30;;;3.30;;
35917;SDS011;22011;59.912;30.300;2023-04-06T00:13:39;4.05;;;3.25;;
35917;SDS011;22011;59.912;30.300;2023-04-06T00:16:06;4.63;;;3.30;;
35917;SDS011;22011;59.912;30.300;2023-04-06T00:18:34;4.80;;;3.10;;
35917;SDS011;22011;59.912;30.300;2023-04-06T00:21:03;5.07;;;3.28;;
35917;SDS011;22011;59.912;30.300;2023-04-06T00:23:31;4.13;;;2.93;;
35917;SDS011;22011;59.912;30.300;2023-04-06T00:25:59;4.32;;;3.50;;
35917;SDS011;22011;59.912;30.300;2023-04-06T00:28:26;3.92;;;3.13;;
35917;SDS011;22011;59.912;30.300;2023-04-06T00:30:55;4.15;;;3.65;;
35917;SDS011;22011;59.912;30.300;2023-04-06T00:33:23;4.78;;;2.90;;
35917;SDS011;22011;59.912;30.300;2023-04-06T00:35:51;5.85;;;3.70;;
35917;SDS011;22011;59.912;30.300;2023-04-06T00:38:20;4.97;;;3.30;;
35917;SDS011;22011;59.912;30.300;2023-04-06T00:40:48;5.75;;;3.58;;
35917;SDS011;22011;59.912;30.300;2023-04-06T00:43:17;6.45;;;3.72;;
35917;SDS011;22011;59.912;30.300;2023-04-06T00:45:44;4.72;;;3.17;;
35917;SDS011;22011;59.912;30.300;2023-04-06T00:48:12;5.07;;;3.47;;
35917;SDS011;22011;59.912;30.300;2023-04-06T00:50:39;3.88;;;3.20;;
35917;SDS011;22011;59.912;30.300;2023-04-06T00:53:07;5.40;;;3.67;;
35917;SDS011;22011;59.912;30.300;2023-04-06T00:55:36;4.60;;;3.60;;
35917;SDS011;22011;59.912;30.300;2023-04-06T00:58:06;5.43;;;3.58;;
35917;SDS011;22011;59.912;30.300;2023-04-06T01:00:43;5.10;;;3.88;;
35917;SDS011;22011;59.912;30.300;2023-04-06T01:03:16;5.82;;;4.00;;
35917;SDS011;22011;59.912;30.300;2023-04-06T01:05:44;5.03;;;3.88;;
35917;SDS011;22011;59.912;30.300;2023-04-06T01:08:19;5.20;;;3.65;;
35917;SDS011;22011;59.912;30.300;2023-04-06T01:10:49;4.70;;;4.03;;
35917;SDS011;22011;59.912;30.300;2023-04-06T01:13:28;4.53;;;3.42;;
35917;SDS011;22011;59.912;30.300;2023-04-06T01:16:02;4.07;;;3.20;;
35917;SDS011;22011;59.912;30.300;2023-04-06T01:18:42;5.60;;;4.00;;
35917;SDS011;22011;59.912;30.300;2023-04-06T01:21:19;4.20;;;3.08;;
35917;SDS011;22011;59.912;30.300;2023-04-06T01:24:07;4.45;;;3.60;;
35917;SDS011;22011;59.912;30.300;2023-04-06T01:26:58;5.90;;;3.63;;
35917;SDS011;22011;59.912;30.300;2023-04-06T01:29:32;5.18;;;3.92;;
35917;SDS011;22011;59.912;30.300;2023-04-06T01:32:02;4.50;;;3.70;;
35917;SDS011;22011;59.912;30.300;2023-04-06T01:34:35;5.20;;;3.85;;
35917;SDS011;22011;59.912;30.300;2023-04-06T01:37:05;4.82;;;3.60;;
35917;SDS011;22011;59.912;30.300;2023-04-06T01:39:34;4.50;;;3.58;;
35917;SDS011;22011;59.912;30.300;2023-04-06T01:42:04;4.22;;;3.20;;
35917;SDS011;22011;59.912;30.300;2023-04-06T01:44:34;5.32;;;3.83;;
35917;SDS011;22011;59.912;30.300;2023-04-06T01:47:12;5.10;;;3.60;;
35917;SDS011;22011;59.912;30.300;2023-04-06T01:49:39;4.50;;;3.58;;
35917;SDS011;22011;59.912;30.300;2023-04-06T01:52:08;4.80;;;3.47;;
35917;SDS011;22011;59.912;30.300;2023-04-06T01:54:40;4.95;;;3.63;;
35917;SDS011;22011;59.912;30.300;2023-04-06T01:57:14;5.72;;;3.75;;
35917;SDS011;22011;59.912;30.300;2023-04-06T01:59:46;5.47;;;3.53;;
35917;SDS011;22011;59.912;30.300;2023-04-06T02:02:21;6.57;;;4.10;;
35917;SDS011;22011;59.912;30.300;2023-04-06T02:04:59;6.32;;;3.83;;
35917;SDS011;22011;59.912;30.300;2023-04-06T02:07:27;4.80;;;3.58;;
35917;SDS011;22011;59.912;30.300;2023-04-06T02:09:57;5.43;;;3.80;;
35917;SDS011;22011;59.912;30.300;2023-04-06T02:12:33;5.75;;;3.42;;
35917;SDS011;22011;59.912;30.300;2023-04-06T02:15:02;5.20;;;3.75;;
35917;SDS011;22011;59.912;30.300;2023-04-06T02:17:30;5.10;;;3.80;;
35917;SDS011;22011;59.912;30.300;2023-04-06T02:19:58;6.05;;;3.60;;
35917;SDS011;22011;59.912;30.300;2023-04-06T02:22:26;7.15;;;3.88;;
35917;SDS011;22011;59.912;30.300;2023-04-06T02:24:53;5.13;;;3.85;;
35917;SDS011;22011;59.912;30.300;2023-04-06T02:27:22;4.90;;;3.50;;
35917;SDS011;22011;59.912;30.300;2023-04-06T02:29:51;4.00;;;3.33;;
35917;SDS011;22011;59.912;30.300;2023-04-06T02:32:20;4.93;;;3.63;;
35917;SDS011;22011;59.912;30.300;2023-04-06T02:34:48;4.38;;;3.67;;
35917;SDS011;22011;59.912;30.300;2023-04-06T02:39:46;4.38;;;3.28;;
35917;SDS011;22011;59.912;30.300;2023-04-06T02:42:14;4.95;;;3.83;;
35917;SDS011;22011;59.912;30.300;2023-04-06T02:44:44;5.00;;;3.67;;
35917;SDS011;22011;59.912;30.300;2023-04-06T02:47:12;5.72;;;4.03;;
35917;SDS011;22011;59.912;30.300;2023-04-06T02:49:43;4.72;;;3.38;;
35917;SDS011;22011;59.912;30.300;2023-04-06T02:52:12;6.05;;;3.95;;
35917;SDS011;22011;59.912;30.300;2023-04-06T02:54:39;5.72;;;4.28;;
35917;SDS011;22011;59.912;30.300;2023-04-06T02:57:07;5.68;;;4.07;;
35917;SDS011;22011;59.912;30.300;2023-04-06T02:59:42;7.70;;;4.00;;
35917;SDS011;22011;59.912;30.300;2023-04-06T03:02:26;5.07;;;4.03;;
35917;SDS011;22011;59.912;30.300;2023-04-06T03:05:03;6.00;;;4.00;;
35917;SDS011;22011;59.912;30.300;2023-04-06T03:07:35;4.50;;;4.00;;
35917;SDS011;22011;59.912;30.300;2023-04-06T03:10:04;5.55;;;4.47;;
35917;SDS011;22011;59.912;30.300;2023-04-06T03:12:32;6.35;;;4.53;;
35917;SDS011;22011;59.912;30.300;2023-04-06T03:15:36;4.40;;;3.70;;
35917;SDS011;22011;59.912;30.300;2023-04-06T03:18:14;6.47;;;4.68;;
35917;SDS011;22011;59.912;30.300;2023-04-06T03:20:47;6.30;;;4.50;;
35917;SDS011;22011;59.912;30.300;2023-04-06T03:23:16;6.95;;;4.93;;
35917;SDS011;22011;59.912;30.300;2023-04-06T03:25:47;6.38;;;4.28;;
35917;SDS011;22011;59.912;30.300;2023-04-06T03:28:18;6.93;;;4.47;;
35917;SDS011;22011;59.912;30.300;2023-04-06T03:30:55;10.23;;;4.38;;
35917;SDS011;22011;59.912;30.300;2023-04-06T03:33:40;5.15;;;4.00;;
35917;SDS011;22011;59.912;30.300;2023-04-06T03:36:13;8.73;;;4.55;;
35917;SDS011;22011;59.912;30.300;2023-04-06T03:38:42;7.38;;;4.65;;
35917;SDS011;22011;59.912;30.300;2023-04-06T03:41:12;7.63;;;4.50;;
35917;SDS011;22011;59.912;30.300;2023-04-06T03:43:45;5.20;;;4.30;;
35917;SDS011;22011;59.912;30.300;2023-04-06T03:46:13;5.75;;;4.32;;
35917;SDS011;22011;59.912;30.300;2023-04-06T03:48:42;6.85;;;4.82;;
35917;SDS011;22011;59.912;30.300;2023-04-06T03:51:10;7.97;;;4.90;;
35917;SDS011;22011;59.912;30.300;2023-04-06T03:53:38;6.82;;;4.50;;
35917;SDS011;22011;59.912;30.300;2023-04-06T03:56:05;5.43;;;4.57;;
35917;SDS011;22011;59.912;30.300;2023-04-06T03:58:33;6.45;;;5.22;;
35917;SDS011;22011;59.912;30.300;2023-04-06T04:01:01;5.75;;;4.45;;
35917;SDS011;22011;59.912;30.300;2023-04-06T04:03:28;6.03;;;3.85;;
35917;SDS011;22011;59.912;30.300;2023-04-06T04:05:57;7.57;;;5.50;;
35917;SDS011;22011;59.912;30.300;2023-04-06T04:08:25;7.27;;;4.80;;
35917;SDS011;22011;59.912;30.300;2023-04-06T04:10:53;8.80;;;5.22;;
35917;SDS011;22011;59.912;30.300;2023-04-06T04:13:22;6.68;;;4.75;;
35917;SDS011;22011;59.912;30.300;2023-04-06T04:15:51;6.73;;;4.90;;
35917;SDS011;22011;59.912;30.300;2023-04-06T04:18:18;7.05;;;4.65;;
35917;SDS011;22011;59.912;30.300;2023-04-06T04:20:46;6.63;;;4.75;;
35917;SDS011;22011;59.912;30.300;2023-04-06T04:23:15;8.60;;;5.68;;
35917;SDS011;22011;59.912;30.300;2023-04-06T04:25:43;6.78;;;5.38;;
35917;SDS011;22011;59.912;30.300;2023-04-06T04:28:11;5.93;;;4.72;;
35917;SDS011;22011;59.912;30.300;2023-04-06T04:30:40;7.32;;;4.50;;
35917;SDS011;22011;59.912;30.300;2023-04-06T04:33:10;7.00;;;4.53;;
35917;SDS011;22011;59.912;30.300;2023-04-06T04:35:38;7.30;;;4.97;;
35917;SDS011;22011;59.912;30.300;2023-04-06T04:38:07;6.28;;;4.93;;
35917;SDS011;22011;59.912;30.300;2023-04-06T04:40:40;7.80;;;5.03;;
35917;SDS011;22011;59.912;30.300;2023-04-06T04:43:09;6.35;;;4.95;;
35917;SDS011;22011;59.912;30.300;2023-04-06T04:45:38;7.47;;;4.80;;
35917;SDS011;22011;59.912;30.300;2023-04-06T04:48:18;6.75;;;4.90;;
35917;SDS011;22011;59.912;30.300;2023-04-06T04:50:58;6.00;;;4.80;;
35917;SDS011;22011;59.912;30.300;2023-04-06T04:53:31;5.18;;;4.45;;
35917;SDS011;22011;59.912;30.300;2023-04-06T04:56:09;6.63;;;4.30;;
35917;SDS011;22011;59.912;30.300;2023-04-06T04:58:36;5.43;;;4.22;;
35917;SDS011;22011;59.912;30.300;2023-04-06T05:01:04;7.65;;;4.05;;
35917;SDS011;22011;59.912;30.300;2023-04-06T05:03:32;7.47;;;4.07;;
35917;SDS011;22011;59.912;30.300;2023-04-06T05:06:04;5.35;;;3.72;;
35917;SDS011;22011;59.912;30.300;2023-04-06T05:08:35;5.07;;;3.75;;
35917;SDS011;22011;59.912;30.300;2023-04-06T05:11:03;5.60;;;4.05;;
35917;SDS011;22011;59.912;30.300;2023-04-06T05:13:37;6.07;;;4.47;;
35917;SDS011;22011;59.912;30.300;2023-04-06T05:16:13;6.13;;;4.10;;
35917;SDS011;22011;59.912;30.300;2023-04-06T05:18:41;8.30;;;3.95;;
35917;SDS011;22011;59.912;30.300;2023-04-06T05:21:09;5.72;;;4.32;;
35917;SDS011;22011;59.912;30.300;2023-04-06T05:23:49;6.70;;;3.78;;
35917;SDS011;22011;59.912;30.300;2023-04-06T05:26:17;6.68;;;4.13;;
35917;SDS011;22011;59.912;30.300;2023-04-06T05:28:47;8.20;;;5.05;;
35917;SDS011;22011;59.912;30.300;2023-04-06T05:31:16;8.98;;;4.97;;
35917;SDS011;22011;59.912;30.300;2023-04-06T05:33:48;10.07;;;4.88;;
35917;SDS011;22011;59.912;30.300;2023-04-06T05:36:23;7.22;;;4.60;;
35917;SDS011;22011;59.912;30.300;2023-04-06T05:38:52;7.15;;;4.78;;
35917;SDS011;22011;59.912;30.300;2023-04-06T05:41:46;7.38;;;4.97;;
35917;SDS011;22011;59.912;30.300;2023-04-06T05:44:20;7.75;;;5.28;;
35917;SDS011;22011;59.912;30.300;2023-04-06T05:46:58;8.40;;;5.23;;
35917;SDS011;22011;59.912;30.300;2023-04-06T05:49:27;9.38;;;4.65;;
35917;SDS011;22011;59.912;30.300;2023-04-06T05:51:54;5.10;;;3.90;;
35917;SDS011;22011;59.912;30.300;2023-04-06T05:54:22;8.05;;;4.88;;
35917;SDS011;22011;59.912;30.300;2023-04-06T05:56:53;5.40;;;4.07;;
35917;SDS011;22011;59.912;30.300;2023-04-06T05:59:22;9.02;;;4.43;;
35917;SDS011;22011;59.912;30.300;2023-04-06T06:01:52;11.30;;;4.75;;
35917;SDS011;22011;59.912;30.300;2023-04-06T06:04:20;11.75;;;4.82;;
35917;SDS011;22011;59.912;30.300;2023-04-06T06:06:52;6.75;;;3.90;;
35917;SDS011;22011;59.912;30.300;2023-04-06T06:09:28;7.28;;;3.42;;
35917;SDS011;22011;59.912;30.300;2023-04-06T06:12:18;6.88;;;3.83;;
35917;SDS011;22011;59.912;30.300;2023-04-06T06:14:49;8.85;;;4.22;;
35917;SDS011;22011;59.912;30.300;2023-04-06T06:17:18;6.25;;;3.63;;
35917;SDS011;22011;59.912;30.300;2023-04-06T06:19:47;8.10;;;4.00;;
35917;SDS011;22011;59.912;30.300;2023-04-06T06:22:15;4.20;;;3.22;;
35917;SDS011;22011;59.912;30.300;2023-04-06T06:27:15;10.65;;;3.75;;
35917;SDS011;22011;59.912;30.300;2023-04-06T06:29:43;5.30;;;3.03;;
35917;SDS011;22011;59.912;30.300;2023-04-06T06:32:12;6.13;;;2.92;;
35917;SDS011;22011;59.912;30.300;2023-04-06T06:34:40;13.88;;;4.20;;
35917;SDS011;22011;59.912;30.300;2023-04-06T06:37:09;9.15;;;3.78;;
35917;SDS011;22011;59.912;30.300;2023-04-06T06:39:38;10.30;;;4.00;;
35917;SDS011;22011;59.912;30.300;2023-04-06T06:42:05;11.25;;;3.60;;
35917;SDS011;22011;59.912;30.300;2023-04-06T06:44:45;11.57;;;4.47;;
35917;SDS011;22011;59.912;30.300;2023-04-06T06:47:14;7.70;;;3.88;;
35917;SDS011;22011;59.912;30.300;2023-04-06T06:49:43;12.15;;;4.28;;
35917;SDS011;22011;59.912;30.300;2023-04-06T06:52:11;7.20;;;4.07;;
35917;SDS011;22011;59.912;30.300;2023-04-06T06:54:39;7.03;;;3.72;;
35917;SDS011;22011;59.912;30.300;2023-04-06T06:57:06;14.38;;;5.32;;
35917;SDS011;22011;59.912;30.300;2023-04-06T06:59:34;11.80;;;3.83;;
35917;SDS011;22011;59.912;30.300;2023-04-06T07:02:02;10.68;;;4.70;;
35917;SDS011;22011;59.912;30.300;2023-04-06T07:04:31;13.90;;;4.93;;
35917;SDS011;22011;59.912;30.300;2023-04-06T07:06:58;17.10;;;5.15;;
35917;SDS011;22011;59.912;30.300;2023-04-06T07:09:27;9.70;;;5.00;;
35917;SDS011;22011;59.912;30.300;2023-04-06T07:11:54;11.98;;;5.95;;
35917;SDS011;22011;59.912;30.300;2023-04-06T07:14:22;21.25;;;6.53;;
35917;SDS011;22011;59.912;30.300;2023-04-06T07:16:51;11.90;;;6.32;;
35917;SDS011;22011;59.912;30.300;2023-04-06T07:19:19;21.30;;;6.93;;
35917;SDS011;22011;59.912;30.300;2023-04-06T07:21:48;21.25;;;7.32;;
35917;SDS011;22011;59.912;30.300;2023-04-06T07:24:16;18.23;;;6.55;;
35917;SDS011;22011;59.912;30.300;2023-04-06T07:26:43;10.35;;;6.30;;
35917;SDS011;22011;59.912;30.300;2023-04-06T07:29:11;12.93;;;7.30;;
35917;SDS011;22011;59.912;30.300;2023-04-06T07:31:39;8.38;;;5.78;;
35917;SDS011;22011;59.912;30.300;2023-04-06T07:34:06;13.30;;;6.40;;
35917;SDS011;22011;59.912;30.300;2023-04-06T07:36:34;8.20;;;6.30;;
35917;SDS011;22011;59.912;30.300;2023-04-06T07:39:03;18.85;;;7.22;;
35917;SDS011;22011;59.912;30.300;2023-04-06T07:41:31;12.45;;;7.40;;
35917;SDS011;22011;59.912;30.300;2023-04-06T07:43:59;10.48;;;6.47;;
35917;SDS011;22011;59.912;30.300;2023-04-06T07:46:28;10.13;;;6.70;;
35917;SDS011;22011;59.912;30.300;2023-04-06T07:48:56;10.90;;;6.75;;
35917;SDS011;22011;59.912;30.300;2023-04-06T07:51:27;11.25;;;6.80;;
35917;SDS011;22011;59.912;30.300;2023-04-06T07:53:55;12.45;;;6.88;;
35917;SDS011;22011;59.912;30.300;2023-04-06T07:56:24;13.00;;;7.57;;
35917;SDS011;22011;59.912;30.300;2023-04-06T07:58:52;9.23;;;6.53;;
35917;SDS011;22011;59.912;30.300;2023-04-06T08:01:21;13.00;;;7.37;;
35917;SDS011;22011;59.912;30.300;2023-04-06T08:03:49;14.45;;;7.32;;
35917;SDS011;22011;59.912;30.300;2023-04-06T08:06:16;14.35;;;7.97;;
35917;SDS011;22011;59.912;30.300;2023-04-06T08:08:44;10.68;;;6.57;;
35917;SDS011;22011;59.912;30.300;2023-04-06T08:11:12;10.63;;;7.47;;
35917;SDS011;22011;59.912;30.300;2023-04-06T08:13:41;11.43;;;7.20;;
35917;SDS011;22011;59.912;30.300;2023-04-06T08:16:08;11.95;;;6.85;;
35917;SDS011;22011;59.912;30.300;2023-04-06T08:18:36;9.60;;;6.30;;
35917;SDS011;22011;59.912;30.300;2023-04-06T08:21:03;14.75;;;7.75;;
35917;SDS011;22011;59.912;30.300;2023-04-06T08:23:31;15.07;;;7.15;;
35917;SDS011;22011;59.912;30.300;2023-04-06T08:25:58;11.68;;;6.50;;
35917;SDS011;22011;59.912;30.300;2023-04-06T08:28:26;10.07;;;6.85;;
35917;SDS011;22011;59.912;30.300;2023-04-06T08:30:55;13.00;;;7.68;;
35917;SDS011;22011;59.912;30.300;2023-04-06T08:33:23;12.95;;;7.57;;
35917;SDS011;22011;59.912;30.300;2023-04-06T08:35:50;13.82;;;8.88;;
35917;SDS011;22011;59.912;30.300;2023-04-06T08:38:18;14.85;;;8.40;;
35917;SDS011;22011;59.912;30.300;2023-04-06T08:40:46;12.93;;;8.10;;
35917;SDS011;22011;59.912;30.300;2023-04-06T08:43:15;17.10;;;8.65;;
35917;SDS011;22011;59.912;30.300;2023-04-06T08:45:46;11.75;;;8.68;;
35917;SDS011;22011;59.912;30.300;2023-04-06T08:48:15;13.77;;;8.73;;
35917;SDS011;22011;59.912;30.300;2023-04-06T08:53:12;13.40;;;8.10;;
35917;SDS011;22011;59.912;30.300;2023-04-06T08:55:41;14.75;;;8.40;;
35917;SDS011;22011;59.912;30.300;2023-04-06T08:58:10;12.02;;;7.97;;
35917;SDS011;22011;59.912;30.300;2023-04-06T09:00:38;14.40;;;9.35;;
35917;SDS011;22011;59.912;30.300;2023-04-06T09:03:06;12.15;;;8.82;;
35917;SDS011;22011;59.912;30.300;2023-04-06T09:05:36;12.32;;;8.60;;
35917;SDS011;22011;59.912;30.300;2023-04-06T09:08:05;11.95;;;8.82;;
35917;SDS011;22011;59.912;30.300;2023-04-06T09:10:33;15.23;;;7.90;;
35917;SDS011;22011;59.912;30.300;2023-04-06T09:13:04;13.02;;;9.18;;
35917;SDS011;22011;59.912;30.300;2023-04-06T09:15:32;14.98;;;8.57;;
35917;SDS011;22011;59.912;30.300;2023-04-06T09:18:00;11.55;;;8.70;;
35917;SDS011;22011;59.912;30.300;2023-04-06T09:20:28;13.00;;;8.52;;
35917;SDS011;22011;59.912;30.300;2023-04-06T09:22:57;15.93;;;10.23;;
35917;SDS011;22011;59.912;30.300;2023-04-06T09:25:25;14.68;;;10.80;;
35917;SDS011;22011;59.912;30.300;2023-04-06T09:27:59;14.45;;;9.80;;
35917;SDS011;22011;59.912;30.300;2023-04-06T09:30:28;15.52;;;10.65;;
35917;SDS011;22011;59.912;30.300;2023-04-06T09:32:56;24.20;;;11.48;;
35917;SDS011;22011;59.912;30.300;2023-04-06T09:35:24;16.75;;;10.98;;
35917;SDS011;22011;59.912;30.300;2023-04-06T09:40:23;14.18;;;10.88;;
35917;SDS011;22011;59.912;30.300;2023-04-06T09:42:51;24.75;;;12.25;;
35917;SDS011;22011;59.912;30.300;2023-04-06T09:45:20;21.63;;;12.88;;
35917;SDS011;22011;59.912;30.300;2023-04-06T09:47:47;20.38;;;12.73;;
35917;SDS011;22011;59.912;30.300;2023-04-06T09:50:17;21.67;;;12.75;;
35917;SDS011;22011;59.912;30.300;2023-04-06T09:52:47;21.90;;;14.10;;
35917;SDS011;22011;59.912;30.300;2023-04-06T09:55:20;20.17;;;13.35;;
35917;SDS011;22011;59.912;30.300;2023-04-06T09:57:55;22.20;;;13.88;;
35917;SDS011;22011;59.912;30.300;2023-04-06T10:00:29;23.02;;;14.07;;
35917;SDS011;22011;59.912;30.300;2023-04-06T10:03:02;23.50;;;12.85;;
35917;SDS011;22011;59.912;30.300;2023-04-06T10:05:37;26.20;;;14.38;;
35917;SDS011;22011;59.912;30.300;2023-04-06T10:08:09;31.38;;;15.63;;
35917;SDS011;22011;59.912;30.300;2023-04-06T10:10:39;26.92;;;16.63;;
35917;SDS011;22011;59.912;30.300;2023-04-06T10:13:07;27.60;;;15.48;;
35917;SDS011;22011;59.912;30.300;2023-04-06T10:15:37;31.60;;;16.23;;
35917;SDS011;22011;59.912;30.300;2023-04-06T10:18:05;28.55;;;16.00;;
35917;SDS011;22011;59.912;30.300;2023-04-06T10:20:35;32.38;;;16.50;;
35917;SDS011;22011;59.912;30.300;2023-04-06T10:23:09;23.83;;;14.88;;
35917;SDS011;22011;59.912;30.300;2023-04-06T10:25:52;30.58;;;16.08;;
35917;SDS011;22011;59.912;30.300;2023-04-06T10:28:22;23.23;;;15.77;;
35917;SDS011;22011;59.912;30.300;2023-04-06T10:30:56;24.30;;;15.48;;
35917;SDS011;22011;59.912;30.300;2023-04-06T10:33:24;23.13;;;14.52;;
35917;SDS011;22011;59.912;30.300;2023-04-06T10:35:52;28.95;;;14.90;;
35917;SDS011;22011;59.912;30.300;2023-04-06T10:38:19;22.30;;;14.85;;
35917;SDS011;22011;59.912;30.300;2023-04-06T10:40:48;24.38;;;15.98;;
35917;SDS011;22011;59.912;30.300;2023-04-06T10:43:19;19.40;;;12.98;;
35917;SDS011;22011;59.912;30.300;2023-04-06T10:45:54;21.23;;;13.07;;
35917;SDS011;22011;59.912;30.300;2023-04-06T10:48:22;18.40;;;13.90;;
35917;SDS011;22011;59.912;30.300;2023-04-06T10:50:51;22.77;;;14.25;;
35917;SDS011;22011;59.912;30.300;2023-04-06T10:53:20;22.10;;;12.93;;
35917;SDS011;22011;59.912;30.300;2023-04-06T10:55:49;24.70;;;13.63;;
35917;SDS011;22011;59.912;30.300;2023-04-06T10:58:19;25.63;;;13.55;;
35917;SDS011;22011;59.912;30.300;2023-04-06T11:00:47;26.55;;;13.60;;
35917;SDS011;22011;59.912;30.300;2023-04-06T11:03:16;27.27;;;14.02;;
35917;SDS011;22011;59.912;30.300;2023-04-06T11:05:44;28.02;;;12.90;;
35917;SDS011;22011;59.912;30.300;2023-04-06T11:08:21;25.90;;;11.05;;
35917;SDS011;22011;59.912;30.300;2023-04-06T11:10:49;17.10;;;10.60;;
35917;SDS011;22011;59.912;30.300;2023-04-06T11:13:17;27.48;;;10.02;;
35917;SDS011;22011;59.912;30.300;2023-04-06T11:15:46;18.27;;;11.35;;
35917;SDS011;22011;59.912;30.300;2023-04-06T11:18:17;17.17;;;10.70;;
35917;SDS011;22011;59.912;30.300;2023-04-06T11:20:47;17.80;;;9.57;;
35917;SDS011;22011;59.912;30.300;2023-04-06T11:23:21;16.38;;;9.82;;
35917;SDS011;22011;59.912;30.300;2023-04-06T11:25:50;15.75;;;9.68;;
35917;SDS011;22011;59.912;30.300;2023-04-06T11:28:18;12.38;;;8.38;;
35917;SDS011;22011;59.912;30.300;2023-04-06T11:30:48;14.48;;;8.45;;
35917;SDS011;22011;59.912;30.300;2023-04-06T11:33:20;14.30;;;7.63;;
35917;SDS011;22011;59.912;30.300;2023-04-06T11:35:48;12.95;;;8.10;;
35917;SDS011;22011;59.912;30.300;2023-04-06T11:38:17;11.35;;;7.65;;
35917;SDS011;22011;59.912;30.300;2023-04-06T11:40:45;20.92;;;9.13;;
35917;SDS011;22011;59.912;30.300;2023-04-06T11:43:13;12.30;;;8.32;;
35917;SDS011;22011;59.912;30.300;2023-04-06T11:45:41;16.52;;;7.10;;
35917;SDS011;22011;59.912;30.300;2023-04-06T11:48:18;21.42;;;8.60;;
35917;SDS011;22011;59.912;30.300;2023-04-06T11:50:48;16.30;;;7.85;;
35917;SDS011;22011;59.912;30.300;2023-04-06T11:53:23;14.40;;;8.43;;
35917;SDS011;22011;59.912;30.300;2023-04-06T11:55:50;14.70;;;8.20;;
35917;SDS011;22011;59.912;30.300;2023-04-06T11:58:18;17.67;;;8.93;;
35917;SDS011;22011;59.912;30.300;2023-04-06T12:00:45;14.55;;;7.60;;
35917;SDS011;22011;59.912;30.300;2023-04-06T12:03:13;19.52;;;8.25;;
35917;SDS011;22011;59.912;30.300;2023-04-06T12:05:43;17.55;;;8.13;;
35917;SDS011;22011;59.912;30.300;2023-04-06T12:08:11;13.02;;;7.93;;
35917;SDS011;22011;59.912;30.300;2023-04-06T12:10:38;20.98;;;7.28;;
35917;SDS011;22011;59.912;30.300;2023-04-06T12:13:06;16.52;;;7.88;;
35917;SDS011;22011;59.912;30.300;2023-04-06T12:15:33;13.75;;;7.47;;
35917;SDS011;22011;59.912;30.300;2023-04-06T12:18:01;15.57;;;8.20;;
35917;SDS011;22011;59.912;30.300;2023-04-06T12:20:29;13.85;;;7.40;;
35917;SDS011;22011;59.912;30.300;2023-04-06T12:22:58;16.20;;;7.60;;
35917;SDS011;22011;59.912;30.300;2023-04-06T12:25:26;14.45;;;6.80;;
35917;SDS011;22011;59.912;30.300;2023-04-06T12:27:53;14.32;;;6.80;;
35917;SDS011;22011;59.912;30.300;2023-04-06T12:30:21;10.77;;;5.55;;
35917;SDS011;22011;59.912;30.300;2023-04-06T12:32:49;9.90;;;5.40;;
35917;SDS011;22011;59.912;30.300;2023-04-06T12:35:17;11.45;;;5.30;;
35917;SDS011;22011;59.912;30.300;2023-04-06T12:37:46;8.50;;;4.25;;
35917;SDS011;22011;59.912;30.300;2023-04-06T12:40:15;8.90;;;4.40;;
35917;SDS011;22011;59.912;30.300;2023-04-06T12:42:43;9.02;;;4.10;;
35917;SDS011;22011;59.912;30.300;2023-04-06T12:45:11;6.78;;;3.10;;
35917;SDS011;22011;59.912;30.300;2023-04-06T12:47:39;13.38;;;3.80;;
35917;SDS011;22011;59.912;30.300;2023-04-06T12:50:07;6.78;;;3.30;;
35917;SDS011;22011;59.912;30.300;2023-04-06T12:52:35;7.15;;;2.97;;
35917;SDS011;22011;59.912;30.300;2023-04-06T12:55:03;4.30;;;3.28;;
35917;SDS011;22011;59.912;30.300;2023-04-06T12:57:33;6.80;;;3.05;;
35917;SDS011;22011;59.912;30.300;2023-04-06T13:00:01;12.90;;;3.20;;
35917;SDS011;22011;59.912;30.300;2023-04-06T13:02:29;5.22;;;2.45;;
35917;SDS011;22011;59.912;30.300;2023-04-06T13:04:57;8.27;;;2.45;;
35917;SDS011;22011;59.912;30.300;2023-04-06T13:07:25;7.50;;;3.05;;
35917;SDS011;22011;59.912;30.300;2023-04-06T13:09:53;6.18;;;3.47;;
35917;SDS011;22011;59.912;30.300;2023-04-06T13:12:20;11.57;;;2.50;;
35917;SDS011;22011;59.912;30.300;2023-04-06T13:14:49;6.38;;;2.17;;
35917;SDS011;22011;59.912;30.300;2023-04-06T13:17:18;7.45;;;2.53;;
35917;SDS011;22011;59.912;30.300;2023-04-06T13:19:46;7.28;;;2.03;;
35917;SDS011;22011;59.912;30.300;2023-04-06T13:22:14;3.38;;;1.65;;
35917;SDS011;22011;59.912;30.300;2023-04-06T13:24:42;8.10;;;2.35;;
35917;SDS011;22011;59.912;30.300;2023-04-06T13:27:10;6.20;;;2.08;;
35917;SDS011;22011;59.912;30.300;2023-04-06T13:29:38;5.20;;;2.00;;
35917;SDS011;22011;59.912;30.300;2023-04-06T13:32:07;8.82;;;2.00;;
35917;SDS011;22011;59.912;30.300;2023-04-06T13:34:36;6.22;;;1.77;;
35917;SDS011;22011;59.912;30.300;2023-04-06T13:37:03;3.67;;;1.63;;
35917;SDS011;22011;59.912;30.300;2023-04-06T13:39:31;4.28;;;1.65;;
35917;SDS011;22011;59.912;30.300;2023-04-06T13:41:59;3.75;;;2.08;;
35917;SDS011;22011;59.912;30.300;2023-04-06T13:44:27;7.07;;;2.00;;
35917;SDS011;22011;59.912;30.300;2023-04-06T13:46:56;5.10;;;1.88;;
35917;SDS011;22011;59.912;30.300;2023-04-06T13:49:25;10.70;;;1.90;;
35917;SDS011;22011;59.912;30.300;2023-04-06T13:51:54;2.90;;;1.60;;
35917;SDS011;22011;59.912;30.300;2023-04-06T13:54:22;5.25;;;1.92;;
35917;SDS011;22011;59.912;30.300;2023-04-06T13:56:51;5.00;;;1.52;;
35917;SDS011;22011;59.912;30.300;2023-04-06T13:59:18;4.53;;;1.63;;
35917;SDS011;22011;59.912;30.300;2023-04-06T14:01:47;5.80;;;1.38;;
35917;SDS011;22011;59.912;30.300;2023-04-06T14:04:15;2.85;;;1.63;;
35917;SDS011;22011;59.912;30.300;2023-04-06T14:06:45;2.25;;;1.05;;
35917;SDS011;22011;59.912;30.300;2023-04-06T14:09:13;8.02;;;1.90;;
35917;SDS011;22011;59.912;30.300;2023-04-06T14:11:40;7.68;;;1.40;;
35917;SDS011;22011;59.912;30.300;2023-04-06T14:14:08;6.43;;;1.30;;
35917;SDS011;22011;59.912;30.300;2023-04-06T14:16:36;10.95;;;1.35;;
35917;SDS011;22011;59.912;30.300;2023-04-06T14:19:03;2.90;;;1.40;;
35917;SDS011;22011;59.912;30.300;2023-04-06T14:21:31;5.70;;;1.45;;
35917;SDS011;22011;59.912;30.300;2023-04-06T14:24:00;10.85;;;1.77;;
35917;SDS011;22011;59.912;30.300;2023-04-06T14:26:29;10.55;;;1.80;;
35917;SDS011;22011;59.912;30.300;2023-04-06T14:28:58;8.13;;;1.40;;
35917;SDS011;22011;59.912;30.300;2023-04-06T14:31:26;2.60;;;1.42;;
35917;SDS011;22011;59.912;30.300;2023-04-06T14:33:53;5.28;;;1.60;;
35917;SDS011;22011;59.912;30.300;2023-04-06T14:36:21;6.20;;;1.50;;
35917;SDS011;22011;59.912;30.300;2023-04-06T14:38:48;6.15;;;1.30;;
35917;SDS011;22011;59.912;30.300;2023-04-06T14:41:17;7.43;;;1.20;;
35917;SDS011;22011;59.912;30.300;2023-04-06T14:43:46;2.70;;;1.25;;
35917;SDS011;22011;59.912;30.300;2023-04-06T14:46:14;4.95;;;1.42;;
35917;SDS011;22011;59.912;30.300;2023-04-06T14:48:42;3.15;;;1.10;;
35917;SDS011;22011;59.912;30.300;2023-04-06T14:51:11;2.45;;;1.02;;
35917;SDS011;22011;59.912;30.300;2023-04-06T14:53:38;6.75;;;1.30;;